<?xml version='1.0' encoding='UTF-8'?>
<gpx xmlns="http://www.topografix.com/GPX/1/1" creator="www.balnam.be" version="1.1" xmlns:xsi="http://www.w3.org/2001/XMLSchema-instance" xsi:schemaLocation="http://www.topografix.com/GPX/1/1 http://www.topografix.com/GPX/1/1/gpx.xsd">
<trk>
<name>nsfsf7</name>
<cmt>r</cmt>
<desc>Sombreffe Chemin n°7 Rue Bertinchamps / Rue Vivier Anon / Rue Emile Pirson / Rue Ardenelle / Rue de Saint-Gery</desc>
<link href="https://chemins.be/sombreffe/chemin/7"/><trkseg>
<trkpt lat="50.526304" lon="4.602480"><time>2026-05-04T17:58:22Z</time></trkpt>
<trkpt lat="50.529646" lon="4.607885"><time>2026-05-04T18:08:22Z</time></trkpt>
</trkseg></trk>
<trk>
<name>nsfsf7</name>
<cmt>v</cmt>
<desc>Sombreffe Chemin n°7 Rue Bertinchamps / Rue Vivier Anon / Rue Emile Pirson / Rue Ardenelle / Rue de Saint-Gery</desc>
<link href="https://chemins.be/sombreffe/chemin/7"/><trkseg>
<trkpt lat="50.529646" lon="4.607885"><time>2026-05-04T18:08:22Z</time></trkpt>
<trkpt lat="50.533247" lon="4.609652"><time>2026-05-04T18:18:22Z</time></trkpt>
<trkpt lat="50.533912" lon="4.610107"><time>2026-05-04T18:28:22Z</time></trkpt>
<trkpt lat="50.535015" lon="4.611057"><time>2026-05-04T18:38:22Z</time></trkpt>
<trkpt lat="50.536999" lon="4.612633"><time>2026-05-04T18:48:22Z</time></trkpt>
<trkpt lat="50.538661" lon="4.613319"><time>2026-05-04T18:58:22Z</time></trkpt>
</trkseg></trk>
<trk>
<name>nsfsf7</name>
<cmt>r</cmt>
<desc>Sombreffe Chemin n°7 Rue Bertinchamps / Rue Vivier Anon / Rue Emile Pirson / Rue Ardenelle / Rue de Saint-Gery</desc>
<link href="https://chemins.be/sombreffe/chemin/7"/><trkseg>
<trkpt lat="50.538661" lon="4.613319"><time>2026-05-04T18:58:22Z</time></trkpt>
<trkpt lat="50.538352" lon="4.614954"><time>2026-05-04T19:08:22Z</time></trkpt>
<trkpt lat="50.539950" lon="4.615893"><time>2026-05-04T19:18:22Z</time></trkpt>
<trkpt lat="50.541269" lon="4.617085"><time>2026-05-04T19:28:22Z</time></trkpt>
<trkpt lat="50.541952" lon="4.617244"><time>2026-05-04T19:38:22Z</time></trkpt>
<trkpt lat="50.545948" lon="4.619339"><time>2026-05-04T19:48:22Z</time></trkpt>
<trkpt lat="50.548538" lon="4.623120"><time>2026-05-04T19:58:22Z</time></trkpt>
<trkpt lat="50.550717" lon="4.625771"><time>2026-05-04T20:08:22Z</time></trkpt>
<trkpt lat="50.551345" lon="4.626353"><time>2026-05-04T20:18:22Z</time></trkpt>
<trkpt lat="50.553854" lon="4.625901"><time>2026-05-04T20:28:22Z</time></trkpt>
<trkpt lat="50.554943" lon="4.625300"><time>2026-05-04T20:38:22Z</time></trkpt>
<trkpt lat="50.556317" lon="4.626027"><time>2026-05-04T20:48:22Z</time></trkpt>
<trkpt lat="50.556945" lon="4.626637"><time>2026-05-04T20:58:22Z</time></trkpt>
<trkpt lat="50.558141" lon="4.626460"><time>2026-05-04T21:08:22Z</time></trkpt>
<trkpt lat="50.559256" lon="4.626410"><time>2026-05-04T21:18:22Z</time></trkpt>
<trkpt lat="50.559839" lon="4.626921"><time>2026-05-04T21:28:22Z</time></trkpt>
</trkseg></trk>
<trk>
<name>nsfsf7</name>
<cmt>v</cmt>
<desc>Sombreffe Chemin n°7 Rue Bertinchamps / Rue Vivier Anon / Rue Emile Pirson / Rue Ardenelle / Rue de Saint-Gery</desc>
<link href="https://chemins.be/sombreffe/chemin/7"/><trkseg>
<trkpt lat="50.559839" lon="4.626921"><time>2026-05-04T21:28:22Z</time></trkpt>
<trkpt lat="50.561062" lon="4.626843"><time>2026-05-04T21:38:22Z</time></trkpt>
<trkpt lat="50.561962" lon="4.626340"><time>2026-05-04T21:48:22Z</time></trkpt>
<trkpt lat="50.562826" lon="4.626006"><time>2026-05-04T21:58:22Z</time></trkpt>
<trkpt lat="50.563419" lon="4.625995"><time>2026-05-04T22:08:22Z</time></trkpt>
<trkpt lat="50.564013" lon="4.625674"><time>2026-05-04T22:18:22Z</time></trkpt>
</trkseg>
</trk>
</gpx>